Saint Paul, MN (55101)

12:05 PM CST on February 10, 2016 (GMT -0600)
Mounds Park, East Metro | | Change Station
CLOSE
Current Station
Personal Weather Station
Location: Saint Paul, MN
Elevation: 850 ft
Nearby Weather Stations

Elev 850 ft 44.95 °N, 93.06 °W | Updated 5 minutes ago

Partly Cloudy
Partly Cloudy
7.4 °F
Feels Like 7 °F
N
3.0
Wind Variable Wind from NW
Gusts 7.0 mph

Today
High -- | Low -- °F
--% Chance of Precip.
Yesterday
High -- | Low -- °F
Precip. -- in
Pressure 30.19 in
Visibility 10.0 miles
Clouds Few 10000 ft
Windchill 7 °F
Dew Point -8 °F
Humidity 48%
Rainfall Not available.
Snow Depth Not available.
7:21 AM 5:32 PM
Waxing Crescent, 6% visible
METAR KSTP 101753Z 04005KT 10SM FEW100 M13/M21 A3015 RMK AO2 SLP223 T11331206 11133 21161 58002
Pressure 30.19 in
Visibility 10.0 miles
Clouds Few 10000 ft
Windchill 7 °F
Dew Point -8 °F
Humidity 48%
Rainfall Not available.
Snow Depth Not available.
7:21 AM 5:32 PM
Waxing Crescent, 6% visible
METAR KSTP 101753Z 04005KT 10SM FEW100 M13/M21 A3015 RMK AO2 SLP223 T11331206 11133 21161 58002

10-Day Weather Forecast

Almanac

Astronomy

Feb. 10, 2016 Rise Set
Actual Time
Civil Twilight
Nautical Twilight
Astronomical Twilight
Moon
Length of Visible Light
Length of Day
Tomorrow will be .
, % of the Moon is Illuminated

Today's Extremes

State Highs State Lows

Community

WunderPhotos

Upload Photos

1,891,904 photos uploaded!

WunderBlog® & News

Nearby

Air Quality

  Air Quality AQ Index Pollutant
Not available.

Snow Depth

Station Depth Elevation

Earthquake Activity

City Distance Mag. Time & Date
Minimum magnitude displayed is 2.5.

Coastal Water Temperatures

Place Temperature

Stations

Nearby Weather Stations

Station Location Temp. Windchill Dew Point Humidity Wind Precip. Elev Updated Type
                   

Watches & Warnings

There are currently no watches in effect.